createdAt,value
2018-12-19T00:01:21.059Z,59.87
2018-12-19T00:03:26.006Z,59.52
2018-12-19T00:05:32.082Z,60.11
2018-12-19T00:07:36.878Z,59.47
2018-12-19T00:09:42.606Z,60.12
2018-12-19T00:11:48.283Z,60.15
2018-12-19T00:13:54.021Z,60.53
2018-12-19T00:15:59.123Z,60.45
2018-12-19T00:18:04.269Z,60.97
2018-12-19T00:20:10.598Z,60.74
2018-12-19T00:22:20.109Z,60.14
2018-12-19T00:24:26.023Z,59.92
2018-12-19T00:26:32.484Z,59.78
2018-12-19T00:28:37.303Z,60.52
2018-12-19T00:30:42.479Z,60.49
2018-12-19T00:32:49.656Z,59.41
2018-12-19T00:34:55.630Z,60.01
2018-12-19T00:37:02.737Z,59.54
2018-12-19T00:39:10.186Z,59.67
2018-12-19T00:41:17.281Z,59.42
2018-12-19T00:43:26.909Z,60.12
2018-12-19T00:45:31.700Z,59.81
2018-12-19T00:47:38.266Z,59.46
2018-12-19T00:49:49.015Z,59.66
2018-12-19T00:51:54.839Z,60.06
2018-12-19T00:54:00.734Z,59.84
2018-12-19T00:56:07.050Z,59.17
2018-12-19T00:58:12.221Z,59.13
2018-12-19T01:00:17.787Z,59.57
2018-12-19T01:02:23.437Z,59.77
2018-12-19T01:04:30.550Z,59.86
2018-12-19T01:06:38.626Z,59.69
2018-12-19T01:08:45.568Z,59.59
2018-12-19T01:10:54.186Z,59.28
2018-12-19T01:13:02.837Z,59.23
2018-12-19T01:15:10.980Z,59.17
2018-12-19T01:17:19.064Z,59.59
2018-12-19T01:19:30.412Z,59.53
2018-12-19T01:21:35.661Z,59.81
2018-12-19T01:23:42.309Z,59.39
2018-12-19T01:25:48.849Z,59.09
2018-12-19T01:27:55.783Z,59.65
2018-12-19T01:30:03.210Z,60.64
2018-12-19T01:32:11.348Z,61.16
2018-12-19T01:34:16.054Z,61.68
2018-12-19T01:36:20.755Z,62.11
2018-12-19T01:38:25.739Z,61.84
2018-12-19T01:40:33.042Z,62.25
2018-12-19T01:42:38.118Z,61.94
2018-12-19T01:44:44.199Z,61.28
2018-12-19T01:46:49.147Z,62.18
2018-12-19T01:48:54.334Z,61.94
2018-12-19T01:50:59.157Z,61.67
2018-12-19T01:53:04.150Z,61.69
2018-12-19T01:55:09.421Z,61.68
2018-12-19T01:57:14.132Z,61.64
2018-12-19T01:59:19.165Z,62.22
2018-12-19T02:01:24.416Z,61.85
2018-12-19T02:03:29.566Z,62.15
2018-12-19T02:05:34.540Z,61.69
2018-12-19T02:07:39.694Z,60.92
2018-12-19T02:09:44.715Z,61.33
2018-12-19T02:11:49.637Z,61.82
2018-12-19T02:13:54.531Z,61.77
2018-12-19T02:15:59.333Z,61.41
2018-12-19T02:18:04.215Z,61.59
2018-12-19T02:20:09.201Z,61.09
2018-12-19T02:22:15.224Z,60.84
2018-12-19T02:24:20.494Z,60.69
2018-12-19T02:26:26.804Z,60.77
2018-12-19T02:28:31.815Z,60.78
2018-12-19T02:30:36.732Z,60.77
2018-12-19T02:32:41.496Z,60.46
2018-12-19T02:34:46.218Z,60.71
2018-12-19T02:36:51.066Z,60.23
2018-12-19T02:38:56.129Z,61.09
2018-12-19T02:41:01.352Z,61.07
2018-12-19T02:43:06.316Z,61.38
2018-12-19T02:45:11.304Z,62.08
2018-12-19T02:47:16.055Z,63.22
2018-12-19T02:49:21.286Z,63.42
2018-12-19T02:51:26.225Z,63.96
2018-12-19T02:53:31.192Z,63.65
2018-12-19T02:55:36.115Z,63.86
2018-12-19T02:57:40.985Z,63.72
2018-12-19T02:59:45.920Z,63.76
2018-12-19T03:01:50.820Z,63.23
2018-12-19T03:03:55.813Z,63.60
2018-12-19T03:06:00.647Z,63.45
2018-12-19T03:08:05.792Z,63.23
2018-12-19T03:10:10.917Z,63.24
2018-12-19T03:12:15.934Z,64.11
2018-12-19T03:14:21.251Z,63.83
2018-12-19T03:16:26.192Z,64.20
2018-12-19T03:18:31.116Z,64.75
2018-12-19T03:20:35.921Z,64.75
2018-12-19T03:22:41.360Z,64.52
2018-12-19T03:24:46.381Z,64.71
2018-12-19T03:26:51.498Z,64.45
2018-12-19T03:28:56.322Z,64.86
2018-12-19T03:31:01.257Z,64.70
2018-12-19T03:33:06.604Z,64.80
2018-12-19T03:35:11.661Z,65.31
2018-12-19T03:37:17.147Z,64.80
2018-12-19T03:39:22.072Z,64.83
2018-12-19T03:41:26.802Z,65.14
2018-12-19T03:43:32.194Z,64.93
2018-12-19T03:45:37.151Z,64.82
2018-12-19T03:47:41.988Z,64.98
2018-12-19T03:52:08.272Z,64.80
2018-12-19T03:54:13.370Z,64.62
2018-12-19T03:56:18.479Z,64.39
2018-12-19T03:58:24.027Z,64.13
2018-12-19T04:00:28.926Z,64.63
2018-12-19T04:02:33.855Z,65.20
2018-12-19T04:04:38.799Z,65.15
2018-12-19T04:06:43.873Z,65.82
2018-12-19T04:08:48.942Z,66.56
2018-12-19T04:10:53.937Z,66.24
2018-12-19T04:12:59.020Z,66.34
2018-12-19T04:15:04.129Z,66.73
2018-12-19T04:17:09.086Z,67.01
2018-12-19T04:19:14.358Z,67.76
2018-12-19T04:21:19.105Z,67.86
2018-12-19T04:23:25.554Z,67.96
2018-12-19T04:25:31.142Z,67.84
2018-12-19T04:27:37.920Z,68.63
2018-12-19T04:29:43.163Z,68.09
2018-12-19T04:31:48.197Z,68.42
2018-12-19T04:33:53.028Z,68.77
2018-12-19T04:35:58.027Z,68.90
2018-12-19T04:38:03.010Z,68.36
2018-12-19T04:40:07.990Z,67.97
2018-12-19T04:42:13.607Z,68.30
2018-12-19T04:44:18.632Z,68.99
2018-12-19T04:46:23.401Z,69.12
2018-12-19T04:48:28.362Z,68.76
2018-12-19T04:50:33.319Z,69.19
2018-12-19T04:52:38.398Z,68.49
2018-12-19T04:54:43.235Z,68.68
2018-12-19T04:56:48.644Z,68.71
2018-12-19T04:58:54.632Z,69.15
2018-12-19T05:00:59.695Z,68.84
2018-12-19T05:03:04.860Z,68.75
2018-12-19T05:05:10.511Z,68.23
2018-12-19T05:07:16.246Z,68.62
2018-12-19T05:09:21.289Z,68.99
2018-12-19T05:11:26.342Z,69.50
2018-12-19T05:13:32.389Z,69.63
2018-12-19T05:15:37.407Z,69.27
2018-12-19T05:17:42.215Z,69.37
2018-12-19T05:19:47.361Z,68.87
2018-12-19T05:21:53.589Z,68.41
2018-12-19T05:23:58.513Z,68.60
2018-12-19T05:26:03.613Z,68.82
2018-12-19T05:28:08.559Z,68.42
2018-12-19T05:30:14.413Z,68.81
2018-12-19T05:32:19.406Z,68.99
2018-12-19T05:34:24.382Z,69.45
2018-12-19T05:36:29.369Z,69.18
2018-12-19T05:38:34.457Z,69.42
2018-12-19T05:40:39.836Z,69.93
2018-12-19T05:42:45.734Z,69.93
2018-12-19T05:44:50.851Z,70.00
2018-12-19T05:46:56.936Z,70.23
2018-12-19T05:49:03.440Z,70.55
2018-12-19T05:51:08.501Z,71.21
2018-12-19T05:53:14.425Z,71.18
2018-12-19T05:55:19.933Z,71.55
2018-12-19T05:57:25.916Z,71.35
2018-12-19T05:59:31.031Z,71.20
2018-12-19T06:01:41.845Z,71.73
2018-12-19T06:03:46.833Z,71.35
2018-12-19T06:05:51.961Z,72.06
2018-12-19T06:07:57.007Z,72.20
2018-12-19T06:10:02.585Z,72.05
2018-12-19T06:12:07.722Z,72.61
2018-12-19T06:14:12.629Z,73.08
2018-12-19T06:16:17.597Z,74.26
2018-12-19T06:18:23.357Z,74.91
2018-12-19T06:20:28.282Z,75.50
2018-12-19T06:22:33.017Z,76.06
2018-12-19T06:24:38.083Z,76.10
2018-12-19T06:26:43.023Z,76.32
2018-12-19T06:28:48.035Z,76.38
2018-12-19T06:30:52.918Z,76.68
2018-12-19T06:32:58.321Z,76.43
2018-12-19T06:35:03.421Z,76.71
2018-12-19T06:37:09.460Z,77.22
2018-12-19T06:39:14.626Z,77.27
2018-12-19T06:41:19.562Z,77.65
2018-12-19T06:43:24.368Z,77.73
2018-12-19T06:45:29.398Z,77.85
2018-12-19T06:47:34.377Z,78.14
2018-12-19T06:49:39.505Z,78.30
2018-12-19T06:51:44.662Z,78.48
2018-12-19T06:53:50.237Z,78.41
2018-12-19T06:55:55.294Z,78.74
2018-12-19T06:58:00.393Z,78.77
2018-12-19T07:00:07.445Z,78.55
2018-12-19T07:02:12.504Z,78.50
2018-12-19T07:04:17.586Z,78.55
2018-12-19T07:06:23.000Z,78.15
2018-12-19T07:08:33.327Z,78.45
2018-12-19T07:10:39.246Z,78.08
2018-12-19T07:12:45.957Z,78.24
2018-12-19T07:14:51.309Z,77.90
2018-12-19T07:16:56.359Z,78.06
2018-12-19T07:19:01.669Z,77.51
2018-12-19T07:21:06.881Z,77.22
2018-12-19T07:23:11.915Z,76.70
2018-12-19T07:25:18.156Z,77.04
2018-12-19T07:27:23.502Z,76.70
2018-12-19T07:29:28.469Z,76.88
2018-12-19T07:31:36.588Z,76.72
2018-12-19T07:33:43.069Z,76.65
2018-12-19T07:35:49.565Z,76.74
2018-12-19T07:37:54.744Z,76.53
2018-12-19T07:39:59.970Z,76.53
2018-12-19T07:42:05.754Z,76.37
2018-12-19T07:44:10.845Z,76.47
2018-12-19T07:46:19.855Z,76.43
2018-12-19T07:48:23.626Z,76.58
2018-12-19T07:50:28.753Z,76.47
2018-12-19T07:52:33.835Z,76.24
2018-12-19T07:54:41.010Z,75.67
2018-12-19T07:56:48.984Z,75.53
2018-12-19T07:58:54.570Z,75.64
2018-12-19T08:00:59.629Z,75.47
2018-12-19T08:03:05.336Z,75.35
2018-12-19T08:05:11.297Z,75.25
2018-12-19T08:07:17.115Z,75.35
2018-12-19T08:09:22.558Z,75.33
2018-12-19T08:11:28.428Z,75.78
2018-12-19T08:13:34.407Z,75.73
2018-12-19T08:15:41.246Z,75.51
2018-12-19T08:17:47.249Z,75.33
2018-12-19T08:19:53.362Z,75.52
2018-12-19T08:22:00.346Z,75.69
2018-12-19T08:24:05.718Z,75.80
2018-12-19T08:26:11.709Z,75.71
2018-12-19T08:28:18.947Z,75.62
2018-12-19T08:30:24.793Z,75.85
2018-12-19T08:32:30.973Z,75.81
2018-12-19T08:34:36.457Z,75.87
2018-12-19T08:36:42.262Z,75.92
2018-12-19T08:38:48.602Z,75.79
2018-12-19T08:40:58.699Z,75.40
2018-12-19T08:43:03.054Z,75.47
2018-12-19T08:45:08.155Z,75.70
2018-12-19T08:47:13.731Z,75.53
2018-12-19T08:49:18.771Z,75.50
2018-12-19T08:51:24.968Z,74.92
2018-12-19T08:53:30.034Z,74.61
2018-12-19T08:55:36.144Z,74.49
2018-12-19T08:57:41.429Z,74.00
2018-12-19T09:02:07.180Z,73.95
2018-12-19T09:04:12.625Z,74.21
2018-12-19T09:06:18.276Z,74.19
2018-12-19T09:08:23.591Z,74.17
2018-12-19T09:10:29.731Z,74.38
2018-12-19T09:12:34.797Z,74.25
2018-12-19T09:14:39.819Z,74.18
2018-12-19T09:16:44.574Z,74.07
2018-12-19T09:18:49.684Z,74.38
2018-12-19T09:20:55.313Z,74.24
2018-12-19T09:23:00.453Z,73.78
2018-12-19T09:25:06.238Z,73.32
2018-12-19T09:27:11.834Z,73.49
2018-12-19T09:29:16.926Z,73.59
2018-12-19T09:31:22.520Z,73.59
2018-12-19T09:33:27.811Z,73.64
2018-12-19T09:35:33.178Z,73.45
2018-12-19T09:37:39.473Z,73.74
2018-12-19T09:39:44.555Z,73.29
2018-12-19T09:41:50.322Z,72.92
2018-12-19T09:43:55.383Z,72.49
2018-12-19T09:46:00.581Z,72.71
2018-12-19T09:48:05.627Z,72.82
2018-12-19T09:50:11.150Z,72.62
2018-12-19T09:52:16.441Z,72.93
2018-12-19T09:54:21.576Z,72.99
2018-12-19T09:56:26.590Z,73.60
2018-12-19T09:58:31.673Z,73.57
2018-12-19T10:00:37.718Z,74.15
2018-12-19T10:02:42.772Z,73.97
2018-12-19T10:04:47.841Z,74.15
2018-12-19T10:06:52.861Z,74.07
2018-12-19T10:08:57.755Z,73.94
2018-12-19T10:11:02.753Z,74.16
2018-12-19T10:13:07.848Z,74.36
2018-12-19T10:15:13.751Z,74.43
2018-12-19T10:17:20.501Z,74.58
2018-12-19T10:19:25.620Z,74.56
2018-12-19T10:23:44.509Z,74.56
2018-12-19T10:25:53.231Z,74.82
2018-12-19T10:27:58.215Z,74.84
2018-12-19T10:30:03.746Z,74.68
2018-12-19T10:32:08.788Z,74.73
2018-12-19T10:34:13.631Z,75.05
2018-12-19T10:38:45.374Z,74.99
2018-12-19T10:40:57.683Z,74.89
2018-12-19T10:43:03.441Z,74.87
2018-12-19T10:45:11.827Z,74.67
2018-12-19T10:47:17.323Z,74.76
2018-12-19T10:49:22.741Z,74.79
2018-12-19T10:51:28.974Z,74.66
2018-12-19T10:53:34.063Z,74.47
2018-12-19T10:55:39.100Z,74.27
2018-12-19T10:57:44.246Z,74.05
2018-12-19T10:59:52.294Z,73.69
2018-12-19T11:01:58.094Z,73.47
2018-12-19T11:04:04.002Z,73.35
2018-12-19T11:06:09.128Z,72.77
2018-12-19T11:08:14.331Z,72.45
2018-12-19T11:10:21.023Z,72.27
2018-12-19T11:12:26.967Z,71.26
2018-12-19T11:14:33.292Z,71.07
2018-12-19T11:16:38.013Z,70.73
2018-12-19T11:18:43.387Z,70.57
2018-12-19T11:20:48.456Z,70.47
2018-12-19T11:22:54.656Z,69.65
2018-12-19T11:25:02.365Z,69.23
2018-12-19T11:27:08.826Z,68.72
2018-12-19T11:29:14.215Z,68.84
2018-12-19T11:31:20.191Z,68.69
2018-12-19T11:33:26.003Z,68.32
2018-12-19T11:35:31.058Z,68.32
2018-12-19T11:37:37.334Z,68.33
2018-12-19T11:39:43.909Z,68.52
2018-12-19T11:41:48.984Z,68.39
2018-12-19T11:43:54.123Z,68.72
2018-12-19T11:46:00.607Z,68.28
2018-12-19T11:48:05.759Z,68.71
2018-12-19T11:50:11.352Z,68.44
2018-12-19T11:52:17.041Z,68.57
2018-12-19T11:54:23.324Z,68.72
2018-12-19T11:56:29.230Z,68.34
2018-12-19T11:58:34.544Z,69.17
2018-12-19T12:00:41.853Z,68.11
2018-12-19T12:02:46.861Z,67.82
2018-12-19T12:04:55.293Z,68.17
2018-12-19T12:07:00.899Z,67.14
2018-12-19T12:09:08.948Z,67.27
2018-12-19T12:11:14.361Z,67.17
2018-12-19T12:13:19.642Z,67.24
2018-12-19T12:15:32.978Z,67.28
2018-12-19T12:17:38.968Z,67.66
2018-12-19T12:19:45.064Z,67.42
2018-12-19T12:21:50.912Z,67.44
2018-12-19T12:23:55.721Z,67.48
2018-12-19T12:26:00.833Z,67.72
2018-12-19T12:28:08.781Z,67.70
2018-12-19T12:30:14.303Z,67.62
2018-12-19T12:32:19.061Z,67.41
2018-12-19T12:34:25.712Z,67.00
2018-12-19T12:36:30.946Z,67.00
2018-12-19T12:38:36.922Z,66.58
2018-12-19T12:40:41.891Z,67.00
2018-12-19T12:42:47.004Z,67.43
2018-12-19T12:44:52.437Z,67.02
2018-12-19T12:46:58.174Z,67.38
2018-12-19T12:49:04.228Z,67.17
2018-12-19T12:51:09.645Z,67.22
2018-12-19T12:53:16.172Z,67.18
2018-12-19T12:55:21.420Z,66.85
2018-12-19T12:57:27.430Z,67.31
2018-12-19T12:59:32.918Z,67.26
2018-12-19T13:01:38.829Z,67.29
2018-12-19T13:03:44.562Z,67.23
2018-12-19T13:05:49.422Z,67.31
2018-12-19T13:07:54.895Z,67.50
2018-12-19T13:09:59.917Z,67.15
2018-12-19T13:12:10.189Z,67.64
2018-12-19T13:14:15.672Z,67.18
2018-12-19T13:16:21.502Z,66.76
2018-12-19T13:18:26.697Z,67.14
2018-12-19T13:20:33.040Z,66.49
2018-12-19T13:22:38.170Z,66.81
2018-12-19T13:24:43.780Z,66.89
2018-12-19T13:26:49.578Z,66.67
2018-12-19T13:28:55.349Z,66.19
2018-12-19T13:31:00.606Z,66.20
2018-12-19T13:33:06.821Z,66.30
2018-12-19T13:35:11.750Z,66.56
2018-12-19T13:37:16.976Z,66.22
2018-12-19T13:39:22.225Z,64.77
2018-12-19T13:41:28.901Z,65.42
2018-12-19T13:43:37.431Z,65.17
2018-12-19T13:45:45.589Z,64.97
2018-12-19T13:47:51.784Z,65.07
2018-12-19T13:49:57.808Z,65.21
2018-12-19T13:52:03.089Z,65.19
2018-12-19T13:54:09.276Z,64.33
2018-12-19T13:56:15.001Z,64.42
2018-12-19T13:58:21.378Z,64.60
2018-12-19T14:00:26.603Z,64.33
2018-12-19T14:02:31.896Z,64.30
2018-12-19T14:04:38.150Z,63.94
2018-12-19T14:06:43.239Z,63.43
2018-12-19T14:08:48.427Z,63.46
2018-12-19T14:10:53.204Z,63.53
2018-12-19T14:12:58.670Z,63.95
2018-12-19T14:15:04.403Z,64.36
2018-12-19T14:17:11.004Z,64.09
2018-12-19T14:19:16.500Z,64.33
2018-12-19T14:21:21.786Z,64.35
2018-12-19T14:23:28.383Z,64.39
2018-12-19T14:25:33.535Z,64.62
2018-12-19T14:27:39.255Z,65.17
2018-12-19T14:29:44.701Z,64.93
2018-12-19T14:31:49.392Z,64.75
2018-12-19T14:33:59.622Z,65.06
2018-12-19T14:36:05.631Z,64.80
2018-12-19T14:38:11.605Z,65.00
2018-12-19T14:40:16.899Z,64.64
2018-12-19T14:42:22.471Z,64.97
2018-12-19T14:44:27.390Z,65.04
2018-12-19T14:46:32.710Z,64.65
2018-12-19T14:48:37.966Z,64.96
2018-12-19T14:50:42.819Z,65.21
2018-12-19T14:52:48.043Z,65.72
2018-12-19T14:54:53.149Z,65.71
2018-12-19T14:56:57.892Z,65.65
2018-12-19T14:59:08.612Z,65.70
2018-12-19T15:01:13.969Z,65.48
2018-12-19T15:03:19.645Z,65.09
2018-12-19T15:05:24.384Z,64.54
2018-12-19T15:07:29.538Z,64.72
2018-12-19T15:09:34.390Z,64.93
2018-12-19T15:11:40.622Z,64.97
2018-12-19T15:13:45.752Z,65.62
2018-12-19T15:15:56.202Z,65.79
2018-12-19T15:18:01.258Z,65.70
2018-12-19T15:20:07.651Z,65.47
2018-12-19T15:22:13.069Z,66.10
2018-12-19T15:24:18.708Z,66.03
2018-12-19T15:26:26.137Z,66.72
2018-12-19T15:28:31.406Z,67.21
2018-12-19T15:30:37.436Z,68.00
2018-12-19T15:32:43.195Z,68.10
2018-12-19T15:34:49.787Z,68.71
2018-12-19T15:36:54.441Z,68.99
2018-12-19T15:38:59.257Z,68.83
2018-12-19T15:41:04.077Z,68.90
2018-12-19T15:43:10.980Z,68.75
2018-12-19T15:45:16.654Z,68.83
2018-12-19T15:47:24.268Z,68.70
2018-12-19T15:49:29.518Z,68.85
2018-12-19T15:51:34.950Z,68.66
2018-12-19T15:53:41.701Z,68.60
2018-12-19T15:55:47.777Z,68.32
2018-12-19T15:57:53.063Z,67.98
2018-12-19T15:59:59.159Z,68.12
2018-12-19T16:02:06.710Z,67.80
2018-12-19T16:04:11.735Z,66.90
2018-12-19T16:06:16.562Z,66.93
2018-12-19T16:08:22.534Z,66.86
2018-12-19T16:10:27.588Z,67.06
2018-12-19T16:12:39.185Z,67.21
2018-12-19T16:14:43.008Z,66.83
2018-12-19T16:16:49.146Z,66.48
2018-12-19T16:18:54.211Z,67.02
2018-12-19T16:20:59.360Z,67.20
2018-12-19T16:23:04.265Z,66.64
2018-12-19T16:25:09.469Z,66.73
2018-12-19T16:27:15.996Z,67.22
2018-12-19T16:29:22.231Z,67.12
2018-12-19T16:31:28.431Z,66.32
2018-12-19T16:35:49.330Z,67.02
2018-12-19T16:37:56.480Z,67.29
2018-12-19T16:40:01.463Z,66.77
2018-12-19T16:42:07.378Z,66.51
2018-12-19T16:44:12.673Z,66.70
2018-12-19T16:46:18.686Z,67.21
2018-12-19T16:48:24.303Z,67.20
2018-12-19T16:50:31.038Z,66.75
2018-12-19T16:52:36.002Z,66.77
2018-12-19T16:54:41.699Z,66.24
2018-12-19T16:56:47.820Z,66.26
2018-12-19T16:58:54.203Z,66.76
2018-12-19T17:00:59.668Z,66.97
2018-12-19T17:03:05.622Z,66.22
2018-12-19T17:05:11.388Z,66.87
2018-12-19T17:07:17.369Z,67.06
2018-12-19T17:09:22.618Z,67.24
2018-12-19T17:11:28.907Z,67.31
2018-12-19T17:13:34.264Z,67.46
2018-12-19T17:15:40.221Z,67.99
2018-12-19T17:17:45.937Z,67.93
2018-12-19T17:19:53.501Z,68.34
2018-12-19T17:21:59.331Z,68.49
2018-12-19T17:24:05.207Z,68.82
2018-12-19T17:26:10.819Z,68.92
2018-12-19T17:28:16.179Z,69.01
2018-12-19T17:30:21.761Z,68.76
2018-12-19T17:32:27.413Z,68.95
2018-12-19T17:34:33.658Z,68.84
2018-12-19T17:36:42.264Z,68.75
2018-12-19T17:38:48.124Z,68.65
2018-12-19T17:40:56.243Z,68.43
2018-12-19T17:43:01.941Z,68.45
2018-12-19T17:45:07.566Z,68.42
2018-12-19T17:47:13.573Z,68.87
2018-12-19T17:49:18.838Z,68.93
2018-12-19T17:51:24.819Z,68.92
2018-12-19T17:53:31.171Z,69.23
2018-12-19T17:55:36.672Z,69.66
2018-12-19T17:57:43.074Z,69.94
2018-12-19T17:59:49.256Z,69.68
2018-12-19T18:01:54.653Z,69.89
2018-12-19T18:04:01.798Z,70.32
2018-12-19T18:06:09.507Z,69.35
2018-12-19T18:08:15.716Z,69.33
2018-12-19T18:10:22.187Z,69.70
2018-12-19T18:12:28.125Z,69.93
2018-12-19T18:14:35.065Z,69.74
2018-12-19T18:16:40.071Z,69.74
2018-12-19T18:18:48.043Z,69.81
2018-12-19T18:20:53.069Z,69.84
2018-12-19T18:22:58.177Z,69.71
2018-12-19T18:25:03.379Z,69.74
2018-12-19T18:27:09.483Z,69.79
2018-12-19T18:29:16.109Z,69.71
2018-12-19T18:31:22.578Z,69.88
2018-12-19T18:33:27.828Z,69.60
2018-12-19T18:35:33.841Z,69.31
2018-12-19T18:37:39.524Z,69.62
2018-12-19T18:39:45.195Z,69.51
2018-12-19T18:41:50.506Z,69.25
2018-12-19T18:43:56.556Z,69.23
2018-12-19T18:46:02.623Z,69.04
2018-12-19T18:48:07.810Z,69.19
2018-12-19T18:50:13.260Z,69.14
2018-12-19T18:52:19.175Z,69.08
2018-12-19T18:54:24.781Z,69.57
2018-12-19T18:56:31.458Z,69.24
2018-12-19T18:58:38.075Z,69.21
2018-12-19T19:00:45.756Z,69.65
2018-12-19T19:02:51.730Z,68.95
2018-12-19T19:04:57.626Z,69.47
2018-12-19T19:07:04.555Z,69.81
2018-12-19T19:09:09.811Z,70.22
2018-12-19T19:11:15.709Z,70.65
2018-12-19T19:13:23.060Z,71.05
2018-12-19T19:15:30.510Z,71.66
2018-12-19T19:17:36.429Z,72.44
2018-12-19T19:19:41.768Z,72.83
2018-12-19T19:21:47.025Z,73.21
2018-12-19T19:23:53.405Z,73.46
2018-12-19T19:25:59.309Z,74.07
2018-12-19T19:28:04.522Z,74.22
2018-12-19T19:30:11.746Z,74.42
2018-12-19T19:32:18.728Z,74.74
2018-12-19T19:34:25.721Z,74.72
2018-12-19T19:36:31.314Z,75.09
2018-12-19T19:38:37.574Z,75.05
2018-12-19T19:40:43.311Z,75.55
2018-12-19T19:42:50.282Z,75.50
2018-12-19T19:44:55.942Z,75.80
2018-12-19T19:47:02.012Z,75.65
2018-12-19T19:49:09.025Z,75.93
2018-12-19T19:51:17.186Z,76.11
2018-12-19T19:53:27.664Z,76.18
2018-12-19T19:55:34.455Z,76.34
2018-12-19T19:57:41.605Z,76.34
2018-12-19T19:59:53.357Z,76.46
2018-12-19T20:02:01.891Z,76.65
2018-12-19T20:04:07.974Z,76.77
2018-12-19T20:06:16.733Z,77.10
2018-12-19T20:08:25.132Z,77.08
2018-12-19T20:10:32.533Z,77.06
2018-12-19T20:12:40.873Z,77.11
2018-12-19T20:14:51.109Z,76.99
2018-12-19T20:17:02.829Z,77.12
2018-12-19T20:19:11.690Z,77.02
2018-12-19T20:21:19.842Z,76.91
2018-12-19T20:23:27.632Z,77.17
2018-12-19T20:25:36.879Z,77.06
2018-12-19T20:27:45.816Z,76.95
2018-12-19T20:29:55.115Z,76.64
2018-12-19T20:32:02.201Z,76.71
2018-12-19T20:36:28.756Z,76.75
2018-12-19T20:38:34.416Z,76.55
2018-12-19T20:40:43.508Z,76.58
2018-12-19T20:42:51.486Z,76.56
2018-12-19T20:45:01.511Z,76.58
2018-12-19T20:47:09.326Z,76.50
2018-12-19T20:49:18.116Z,76.24
2018-12-19T20:51:26.257Z,75.90
2018-12-19T20:53:34.141Z,75.76
2018-12-19T20:55:43.698Z,75.63
2018-12-19T20:57:51.459Z,75.72
2018-12-19T21:00:01.415Z,75.54
2018-12-19T21:02:12.531Z,75.54
2018-12-19T21:04:19.071Z,75.08
2018-12-19T21:06:25.037Z,74.79
2018-12-19T21:08:36.385Z,74.86
2018-12-19T21:10:46.468Z,75.16
2018-12-19T21:12:51.735Z,75.18
2018-12-19T21:14:58.601Z,75.13
2018-12-19T21:17:10.613Z,75.03
2018-12-19T21:19:16.640Z,74.58
2018-12-19T21:21:23.566Z,74.55
2018-12-19T21:23:30.888Z,74.37
2018-12-19T21:25:36.251Z,74.45
2018-12-19T21:27:41.457Z,74.32
2018-12-19T21:29:47.389Z,73.88
2018-12-19T21:31:53.061Z,73.67
2018-12-19T21:33:59.725Z,73.97
2018-12-19T21:36:06.844Z,74.51
2018-12-19T21:38:13.176Z,74.84
2018-12-19T21:40:19.961Z,74.58
2018-12-19T21:42:25.780Z,75.04
2018-12-19T21:44:32.129Z,75.26
2018-12-19T21:46:39.745Z,75.83
2018-12-19T21:48:46.977Z,76.14
2018-12-19T21:50:54.596Z,76.12
2018-12-19T21:53:02.151Z,76.60
2018-12-19T21:55:08.674Z,76.79
2018-12-19T21:57:16.615Z,76.84
2018-12-19T21:59:22.340Z,77.20
2018-12-19T22:01:28.150Z,77.18
2018-12-19T22:03:34.352Z,77.21
2018-12-19T22:05:41.198Z,77.59
2018-12-19T22:07:48.786Z,77.57
2018-12-19T22:09:55.195Z,77.37
2018-12-19T22:12:02.351Z,77.32
2018-12-19T22:14:08.768Z,77.39
2018-12-19T22:16:20.038Z,77.54
2018-12-19T22:18:30.777Z,77.52
2018-12-19T22:20:37.061Z,77.30
2018-12-19T22:22:45.359Z,77.20
2018-12-19T22:24:52.025Z,77.09
2018-12-19T22:26:57.598Z,77.28
2018-12-19T22:29:08.249Z,77.12
2018-12-19T22:31:17.879Z,77.21
2018-12-19T22:33:29.833Z,77.14
2018-12-19T22:35:38.344Z,77.22
2018-12-19T22:40:27.216Z,77.90
2018-12-19T22:42:37.480Z,77.97
2018-12-19T22:44:49.680Z,78.32
2018-12-19T22:47:00.634Z,78.21
2018-12-19T22:49:08.036Z,78.43
2018-12-19T22:51:15.848Z,78.58
2018-12-19T22:53:22.039Z,78.65
2018-12-19T22:55:29.535Z,78.87
2018-12-19T22:57:36.723Z,78.96
2018-12-19T22:59:42.401Z,78.62
2018-12-19T23:01:52.765Z,78.39
2018-12-19T23:04:03.879Z,78.27
2018-12-19T23:06:09.138Z,78.41
2018-12-19T23:08:15.885Z,78.19
2018-12-19T23:10:21.794Z,77.79
2018-12-19T23:12:29.045Z,78.06
2018-12-19T23:14:34.708Z,78.12
2018-12-19T23:16:40.387Z,78.19
2018-12-19T23:18:47.863Z,78.29
2018-12-19T23:20:53.559Z,78.94
2018-12-19T23:22:58.939Z,78.69
2018-12-19T23:25:04.154Z,78.77
2018-12-19T23:27:09.742Z,79.20
2018-12-19T23:29:16.505Z,78.90
2018-12-19T23:31:24.403Z,79.44
2018-12-19T23:33:30.040Z,79.31
2018-12-19T23:35:35.237Z,79.62
2018-12-19T23:37:40.360Z,79.85
2018-12-19T23:39:46.161Z,79.90
2018-12-19T23:41:51.511Z,80.17
2018-12-19T23:43:57.003Z,80.02
2018-12-19T23:46:02.112Z,80.19
2018-12-19T23:48:07.471Z,80.42
2018-12-19T23:50:12.714Z,80.75
2018-12-19T23:52:17.760Z,80.60
2018-12-19T23:54:29.045Z,80.79
2018-12-19T23:56:31.794Z,80.91
2018-12-19T23:58:37.053Z,81.06
